»·PEaware :: N517PC KBUR-KLAS

N517PC :: KBUR-KLAS

FLIGHT INFORMATION

Flight Status: Arrived
Operator: Privately registered:
United States
More flights under this callsign
Pilot: Mike W. (28037)
Aircraft: Unknown
(RV10)
More flights by this aircraft type
Origin: KBUR Bob Hope-Burbank
United States
Destination: KLAS McCarran Intl
United States
More flights between these airports :: More routes between these airports
Route: +VNY3 DAG CRESO 4
File this flight plan on PilotEdge
Remarks:
Altitude:
(Current/Filed)
17,000ft
Speed:
(Current/Filed)
150kts
Departed: 22-Mar-20 05:55 PM
Arrived: 22-Mar-20 07:19 PM
Distance/Time
Traveled:
193nm/1:24
Distance/Time
To Go:
Arrived

Flight Plot

Page will automatically refresh every two minutes.

Flight plan parsing failed; only flown route is shown


Map Options




Map Legend


Flown Route
Filed Route
Departure Airport
Arrival Airport
Navaid (VOR, NDB)
Fix

Horizontal Profiles

Position Reports

Time Latitude Longitude Heading Altitude Ground
Speed
22-Mar-20 17:39 34.200215 -118.358844 258 723ft 0kts
22-Mar-20 17:40 34.200215 -118.358844 258 723ft 0kts
22-Mar-20 17:41 34.200215 -118.358844 258 723ft 0kts
22-Mar-20 17:42 34.200215 -118.358844 258 723ft 0kts
22-Mar-20 17:43 34.200215 -118.358844 258 723ft 0kts
22-Mar-20 17:44 34.200215 -118.358844 258 723ft 0kts
22-Mar-20 17:45 34.200038 -118.359422 180 724ft 0kts
22-Mar-20 17:46 34.200038 -118.359422 180 724ft 0kts
22-Mar-20 17:47 34.200038 -118.359422 180 724ft 0kts
22-Mar-20 17:48 34.200038 -118.359422 180 724ft 0kts
22-Mar-20 17:49 34.200038 -118.359422 180 724ft 0kts
22-Mar-20 17:50 34.199978 -118.358225 352 720ft 10kts
22-Mar-20 17:51 34.204515 -118.359458 344 742ft 26kts
22-Mar-20 17:52 34.211517 -118.361196 28 775ft 3kts
22-Mar-20 17:53 34.211527 -118.361190 27 775ft 0kts
22-Mar-20 17:54 34.193532 -118.354652 184 1372ft 104kts
22-Mar-20 17:55 34.173928 -118.377997 225 2828ft 95kts
22-Mar-20 17:56 34.169934 -118.403079 321 4200ft 92kts
22-Mar-20 17:57 34.197280 -118.406657 351 5390ft 103kts
22-Mar-20 17:58 34.225446 -118.414414 341 6519ft 108kts
22-Mar-20 17:59 34.255273 -118.423112 340 7610ft 111kts
22-Mar-20 18:00 34.285141 -118.431869 340 8656ft 111kts
22-Mar-20 18:01 34.315307 -118.440740 339 9638ft 111kts
22-Mar-20 18:02 34.344456 -118.449303 338 10601ft 103kts
22-Mar-20 18:03 34.374143 -118.459641 344 11216ft 127kts
22-Mar-20 18:04 34.401557 -118.431575 55 11786ft 140kts
22-Mar-20 18:05 34.425158 -118.393831 55 12467ft 140kts
22-Mar-20 18:06 34.448810 -118.356145 56 13145ft 140kts
22-Mar-20 18:07 34.471984 -118.319213 57 13813ft 135kts
22-Mar-20 18:08 34.494416 -118.283474 57 14478ft 130kts
22-Mar-20 18:09 34.516519 -118.248219 58 15005ft 132kts
22-Mar-20 18:10 34.538546 -118.212976 60 15459ft 131kts
22-Mar-20 18:11 34.561700 -118.175829 60 15767ft 143kts
22-Mar-20 18:12 34.585850 -118.137187 58 16189ft 140kts
22-Mar-20 18:13 34.609501 -118.100591 55 16561ft 138kts
22-Mar-20 18:14 34.633819 -118.064027 70 16841ft 133kts
22-Mar-20 18:15 34.645846 -118.025061 110 17080ft 113kts
22-Mar-20 18:16 34.643571 -117.982501 106 17040ft 142kts
22-Mar-20 18:17 34.646538 -117.931844 98 17031ft 154kts
22-Mar-20 18:18 34.651795 -117.879179 96 17026ft 158kts
22-Mar-20 18:19 34.657535 -117.825570 96 17022ft 160kts
22-Mar-20 18:20 34.663375 -117.771472 96 17025ft 161kts
22-Mar-20 18:21 34.676187 -117.717073 84 17029ft 168kts
22-Mar-20 18:22 34.690208 -117.662415 84 17019ft 170kts
22-Mar-20 18:23 34.704382 -117.607087 84 17011ft 170kts
22-Mar-20 18:24 34.718497 -117.551882 84 17012ft 170kts
22-Mar-20 18:25 34.732604 -117.496575 84 17013ft 171kts
22-Mar-20 18:26 34.746778 -117.440911 84 17013ft 171kts
22-Mar-20 18:27 34.760867 -117.385454 84 17014ft 171kts
22-Mar-20 18:28 34.775009 -117.329672 84 17009ft 171kts
22-Mar-20 18:29 34.789032 -117.274245 84 17007ft 170kts
22-Mar-20 18:30 34.802900 -117.219300 85 17005ft 169kts
22-Mar-20 18:31 34.816780 -117.164182 85 17002ft 169kts
22-Mar-20 18:32 34.830512 -117.109493 84 17016ft 168kts
22-Mar-20 18:33 34.844290 -117.054336 82 17014ft 170kts
22-Mar-20 18:34 34.858247 -116.998500 79 17012ft 173kts
22-Mar-20 18:35 34.872427 -116.941687 77 17011ft 176kts
22-Mar-20 18:36 34.886782 -116.884153 75 17011ft 177kts
22-Mar-20 18:37 34.901193 -116.826507 75 17012ft 178kts
22-Mar-20 18:38 34.915585 -116.768557 77 17013ft 178kts
22-Mar-20 18:39 34.929896 -116.710729 78 17013ft 177kts
22-Mar-20 18:40 34.944162 -116.652958 79 17014ft 177kts
22-Mar-20 18:41 34.958414 -116.595123 79 17014ft 177kts
22-Mar-20 18:42 34.979709 -116.539790 66 17017ft 180kts
22-Mar-20 18:43 35.003553 -116.486165 68 17019ft 178kts
22-Mar-20 18:44 35.027179 -116.432954 69 17022ft 176kts
22-Mar-20 18:45 35.050321 -116.380706 70 17024ft 173kts
22-Mar-20 18:46 35.073247 -116.328888 71 17022ft 171kts
22-Mar-20 18:47 35.095968 -116.277480 71 17022ft 170kts
22-Mar-20 18:48 35.118456 -116.226538 71 17012ft 167kts
22-Mar-20 18:49 35.140488 -116.176542 71 17013ft 165kts
22-Mar-20 18:50 35.162386 -116.126786 71 17014ft 165kts
22-Mar-20 18:51 35.184122 -116.077303 71 17014ft 165kts
22-Mar-20 18:52 35.206037 -116.027357 71 16987ft 166kts
22-Mar-20 18:53 35.227949 -115.977351 71 16987ft 165kts
22-Mar-20 18:55 35.250208 -115.926312 70 16708ft 184kts
22-Mar-20 18:56 35.274861 -115.869927 69 15896ft 186kts
22-Mar-20 18:57 35.298956 -115.814684 68 15079ft 181kts
22-Mar-20 18:58 35.327824 -115.764378 51 14276ft 182kts
22-Mar-20 18:59 35.361791 -115.719142 50 13472ft 178kts
22-Mar-20 19:00 35.393095 -115.677407 50 12714ft 152kts
22-Mar-20 19:01 35.421203 -115.639850 49 12058ft 148kts
22-Mar-20 19:02 35.449404 -115.602197 49 11396ft 152kts
22-Mar-20 19:03 35.478477 -115.563303 49 10708ft 154kts
22-Mar-20 19:04 35.507175 -115.524865 49 10039ft 138kts
22-Mar-20 19:05 35.536269 -115.485848 49 10020ft 164kts
22-Mar-20 19:06 35.567896 -115.443417 49 10018ft 170kts
22-Mar-20 19:07 35.606221 -115.408967 21 9779ft 186kts
22-Mar-20 19:08 35.656727 -115.385741 21 9085ft 197kts
22-Mar-20 19:09 35.708506 -115.362095 21 8380ft 198kts
22-Mar-20 19:10 35.759682 -115.338861 21 7683ft 197kts
22-Mar-20 19:11 35.809993 -115.319873 15 6968ft 180kts
22-Mar-20 19:12 35.856138 -115.298211 23 6231ft 176kts
22-Mar-20 19:12 35.893498 -115.278376 25 5598ft 175kts
22-Mar-20 19:14 35.945111 -115.249536 27 4753ft 174kts
22-Mar-20 19:15 35.987323 -115.222220 24 4071ft 165kts
22-Mar-20 19:15 36.018801 -115.203701 26 3638ft 124kts
22-Mar-20 19:16 36.041687 -115.190665 28 3386ft 87kts
22-Mar-20 19:18 36.070532 -115.173360 24 2420ft 93kts
22-Mar-20 19:18 36.085093 -115.164728 21 2144ft 40kts
22-Mar-20 19:19 36.089366 -115.163435 289 2130ft 0kts
22-Mar-20 19:20 36.090636 -115.165276 268 2131ft 8kts

Navigation Log

Ident Type
Flight plan parsing failed, navigation log unavailable